createdAt,value
2018-03-22T00:01:55.659Z,-6.00
2018-03-22T00:04:23.172Z,-5.90
2018-03-22T00:06:50.724Z,-5.90
2018-03-22T00:09:18.240Z,-5.90
2018-03-22T00:11:45.775Z,-5.80
2018-03-22T00:14:14.052Z,-5.70
2018-03-22T00:16:42.356Z,-5.80
2018-03-22T00:19:09.869Z,-5.80
2018-03-22T00:21:38.172Z,-5.90
2018-03-22T00:24:05.692Z,-5.90
2018-03-22T00:26:33.223Z,-5.70
2018-03-22T00:29:00.747Z,-5.80
2018-03-22T00:31:32.119Z,-5.80
2018-03-22T00:33:59.629Z,-5.90
2018-03-22T00:36:27.152Z,-5.80
2018-03-22T00:38:54.662Z,-5.90
2018-03-22T00:41:22.950Z,-6.00
2018-03-22T00:43:50.462Z,-6.10
2018-03-22T00:46:17.982Z,-6.00
2018-03-22T00:48:45.491Z,-5.90
2018-03-22T00:51:13.020Z,-5.90
2018-03-22T00:53:40.526Z,-5.90
2018-03-22T00:56:08.815Z,-5.90
2018-03-22T00:58:36.326Z,-5.90
2018-03-22T01:01:03.857Z,-5.90
2018-03-22T01:03:31.370Z,-6.00
2018-03-22T01:05:59.664Z,-6.10
2018-03-22T01:08:27.179Z,-6.10
2018-03-22T01:10:54.710Z,-6.20
2018-03-22T01:13:22.219Z,-6.20
2018-03-22T01:15:50.512Z,-6.30
2018-03-22T01:18:18.032Z,-6.30
2018-03-22T01:20:45.799Z,-6.30
2018-03-22T01:23:13.308Z,-6.30
2018-03-22T01:25:40.830Z,-6.40
2018-03-22T01:28:09.106Z,-6.30
2018-03-22T01:30:37.406Z,-6.20
2018-03-22T01:33:04.911Z,-6.20
2018-03-22T01:35:33.210Z,-6.10
2018-03-22T01:38:00.719Z,-6.20
2018-03-22T01:40:28.247Z,-6.20
2018-03-22T01:42:56.519Z,-6.30
2018-03-22T01:45:24.030Z,-6.30
2018-03-22T01:47:51.570Z,-6.40
2018-03-22T01:50:19.075Z,-6.40
2018-03-22T01:52:58.615Z,-6.40
2018-03-22T01:55:26.125Z,-6.40
2018-03-22T01:57:53.646Z,-6.40
2018-03-22T02:00:21.926Z,-6.50
2018-03-22T02:02:50.223Z,-6.60
2018-03-22T02:05:17.730Z,-6.60
2018-03-22T02:07:45.250Z,-6.70
2018-03-22T02:10:12.750Z,-6.60
2018-03-22T02:12:40.281Z,-6.60
2018-03-22T02:15:07.794Z,-6.60
2018-03-22T02:17:36.084Z,-6.80
2018-03-22T02:20:03.586Z,-6.80
2018-03-22T02:22:31.108Z,-6.80
2018-03-22T02:24:58.615Z,-6.90
2018-03-22T02:27:26.153Z,-6.90
2018-03-22T02:29:53.660Z,-7.00
2018-03-22T02:32:21.946Z,-7.10
2018-03-22T02:34:49.459Z,-7.10
2018-03-22T02:37:16.984Z,-7.10
2018-03-22T02:39:44.491Z,-7.00
2018-03-22T02:42:12.015Z,-6.90
2018-03-22T02:44:39.523Z,-7.00
2018-03-22T02:47:07.858Z,-6.90
2018-03-22T02:49:35.351Z,-7.00
2018-03-22T02:52:03.639Z,-6.80
2018-03-22T02:54:31.906Z,-6.80
2018-03-22T02:57:00.200Z,-6.80
2018-03-22T02:59:27.717Z,-6.80
2018-03-22T03:01:55.641Z,-6.90
2018-03-22T03:04:23.147Z,-6.80
2018-03-22T03:06:50.672Z,-6.90
2018-03-22T03:09:18.178Z,-6.90
2018-03-22T03:11:46.468Z,-7.10
2018-03-22T03:14:14.742Z,-7.20
2018-03-22T03:16:42.272Z,-7.20
2018-03-22T03:19:09.784Z,-7.20
2018-03-22T03:21:37.311Z,-7.30
2018-03-22T03:24:05.583Z,-7.20
2018-03-22T03:26:33.875Z,-7.30
2018-03-22T03:29:01.386Z,-7.30
2018-03-22T03:31:28.924Z,-7.20
2018-03-22T03:33:56.430Z,-7.30
2018-03-22T03:36:24.723Z,-7.20
2018-03-22T03:38:52.230Z,-7.30
2018-03-22T03:41:19.746Z,-7.30
2018-03-22T03:43:47.318Z,-7.30
2018-03-22T03:46:15.579Z,-7.40
2018-03-22T03:48:43.082Z,-7.40
2018-03-22T03:51:10.591Z,-7.40
2018-03-22T03:53:38.122Z,-7.40
2018-03-22T03:56:05.631Z,-7.40
2018-03-22T03:58:33.158Z,-7.40
2018-03-22T04:01:01.430Z,-7.40
2018-03-22T04:03:29.858Z,-7.50
2018-03-22T04:05:57.247Z,-7.50
2018-03-22T04:08:24.779Z,-7.60
2018-03-22T04:10:52.290Z,-7.60
2018-03-22T04:13:20.584Z,-7.80
2018-03-22T04:15:48.091Z,-7.80
2018-03-22T04:18:15.624Z,-7.80
2018-03-22T04:20:43.131Z,-7.80
2018-03-22T04:23:11.424Z,-7.80
2018-03-22T04:25:38.939Z,-7.80
2018-03-22T04:28:06.463Z,-7.80
2018-03-22T04:30:33.978Z,-7.80
2018-03-22T04:33:02.267Z,-7.80
2018-03-22T04:35:30.548Z,-7.80
2018-03-22T04:37:58.071Z,-7.80
2018-03-22T04:40:25.585Z,-7.80
2018-03-22T04:42:53.391Z,-7.80
2018-03-22T04:45:20.895Z,-7.70
2018-03-22T04:47:48.418Z,-7.80
2018-03-22T04:50:15.926Z,-7.70
2018-03-22T04:52:43.472Z,-7.70
2018-03-22T04:55:10.978Z,-7.80
2018-03-22T04:57:38.511Z,-7.80
2018-03-22T05:00:06.024Z,-7.60
2018-03-22T05:02:34.318Z,-7.70
2018-03-22T05:05:01.823Z,-7.80
2018-03-22T05:07:29.343Z,-7.70
2018-03-22T05:09:56.851Z,-7.70
2018-03-22T05:12:25.150Z,-7.70
2018-03-22T05:14:53.425Z,-7.70
2018-03-22T05:17:21.719Z,-7.70
2018-03-22T05:19:49.223Z,-7.70
2018-03-22T05:22:16.750Z,-7.70
2018-03-22T05:24:44.250Z,-7.70
2018-03-22T05:27:11.770Z,-7.70
2018-03-22T05:29:39.274Z,-7.70
2018-03-22T05:32:06.795Z,-7.60
2018-03-22T05:34:34.307Z,-7.60
2018-03-22T05:37:02.599Z,-7.40
2018-03-22T05:39:30.108Z,-7.40
2018-03-22T05:41:57.635Z,-7.30
2018-03-22T05:44:25.144Z,-7.10
2018-03-22T05:46:52.718Z,-6.90
2018-03-22T05:49:21.032Z,-6.90
2018-03-22T05:51:48.538Z,-7.00
2018-03-22T05:54:16.878Z,-6.90
2018-03-22T05:56:44.382Z,-6.90
2018-03-22T05:59:12.674Z,-6.80
2018-03-22T06:01:40.179Z,-6.90
2018-03-22T06:04:07.712Z,-6.90
2018-03-22T06:06:35.248Z,-6.70
2018-03-22T06:09:03.142Z,-6.70
2018-03-22T06:11:30.829Z,-6.70
2018-03-22T06:13:58.351Z,-6.70
2018-03-22T06:16:25.859Z,-6.40
2018-03-22T06:18:53.383Z,-6.40
2018-03-22T06:21:20.891Z,-6.40
2018-03-22T06:23:49.183Z,-5.80
2018-03-22T06:26:16.699Z,-5.80
2018-03-22T06:28:44.222Z,-5.80
2018-03-22T06:31:11.723Z,-5.90
2018-03-22T06:33:39.245Z,-5.80
2018-03-22T06:36:06.779Z,-5.60
2018-03-22T06:38:34.302Z,-5.30
2018-03-22T06:41:01.819Z,-4.80
2018-03-22T06:43:29.347Z,-4.40
2018-03-22T06:45:57.618Z,-3.80
2018-03-22T06:48:25.911Z,-3.60
2018-03-22T06:50:53.422Z,-3.60
2018-03-22T06:53:20.938Z,-3.40
2018-03-22T06:55:48.444Z,-3.00
2018-03-22T06:58:15.967Z,-2.70
2018-03-22T07:00:43.483Z,-2.50
2018-03-22T07:03:11.772Z,-2.20
2018-03-22T07:05:39.288Z,-2.20
2018-03-22T07:08:06.807Z,-1.70
2018-03-22T07:10:34.314Z,-1.60
2018-03-22T07:13:01.839Z,-1.40
2018-03-22T07:15:29.349Z,-1.30
2018-03-22T07:17:57.642Z,-0.80
2018-03-22T07:20:25.147Z,-0.80
2018-03-22T07:22:52.670Z,-1.00
2018-03-22T07:25:20.179Z,-0.90
2018-03-22T07:27:47.699Z,-1.10
2018-03-22T07:30:15.214Z,-1.00
2018-03-22T07:32:43.516Z,-0.60
2018-03-22T07:35:11.019Z,-0.60
2018-03-22T07:37:38.542Z,-0.60
2018-03-22T07:40:06.123Z,-0.30
2018-03-22T07:42:34.358Z,-0.20
2018-03-22T07:45:07.490Z,-0.20
2018-03-22T07:47:35.021Z,-0.20
2018-03-22T07:50:02.530Z,0.00
2018-03-22T07:52:30.051Z,0.30
2018-03-22T07:54:58.320Z,0.50
2018-03-22T07:57:25.832Z,0.50
2018-03-22T07:59:54.119Z,0.90
2018-03-22T08:02:22.384Z,1.30
2018-03-22T08:04:50.666Z,1.30
2018-03-22T08:07:18.935Z,1.20
2018-03-22T08:09:47.224Z,1.20
2018-03-22T08:12:15.495Z,1.80
2018-03-22T08:14:43.771Z,1.80
2018-03-22T08:17:12.046Z,1.80
2018-03-22T08:19:40.335Z,1.50
2018-03-22T08:22:07.834Z,1.50
2018-03-22T08:24:35.347Z,2.40
2018-03-22T08:27:02.851Z,2.20
2018-03-22T08:29:30.362Z,2.40
2018-03-22T08:31:57.862Z,2.70
2018-03-22T08:34:25.374Z,2.80
2018-03-22T08:36:53.634Z,3.00
2018-03-22T08:39:21.922Z,2.60
2018-03-22T08:41:50.182Z,2.90
2018-03-22T08:44:17.699Z,2.90
2018-03-22T08:46:45.198Z,3.10
2018-03-22T08:49:12.715Z,3.20
2018-03-22T08:51:40.215Z,2.80
2018-03-22T08:54:07.726Z,3.00
2018-03-22T08:56:35.532Z,2.80
2018-03-22T08:59:03.047Z,2.40
2018-03-22T09:01:30.543Z,2.80
2018-03-22T09:03:58.062Z,2.60
2018-03-22T09:06:25.566Z,2.60
2018-03-22T09:08:53.082Z,2.90
2018-03-22T09:11:20.587Z,3.10
2018-03-22T09:13:48.862Z,3.30
2018-03-22T09:16:16.361Z,3.30
2018-03-22T09:18:43.886Z,3.00
2018-03-22T09:21:12.150Z,2.60
2018-03-22T09:23:39.663Z,2.50
2018-03-22T09:26:07.167Z,2.30
2018-03-22T09:28:34.678Z,2.30
2018-03-22T09:31:02.179Z,2.10
2018-03-22T09:33:29.701Z,2.20
2018-03-22T09:35:57.599Z,2.80
2018-03-22T09:38:25.126Z,2.80
2018-03-22T09:40:52.623Z,2.60
2018-03-22T09:43:20.143Z,2.30
2018-03-22T09:45:47.793Z,2.90
2018-03-22T09:48:15.415Z,2.40
2018-03-22T09:50:43.591Z,2.90
2018-03-22T09:53:11.879Z,2.90
2018-03-22T09:55:39.394Z,2.90
2018-03-22T09:58:06.887Z,3.30
2018-03-22T10:00:35.171Z,3.00
2018-03-22T10:03:02.667Z,3.10
2018-03-22T10:05:30.180Z,2.70
2018-03-22T10:07:58.443Z,2.50
2018-03-22T10:10:26.728Z,2.60
2018-03-22T10:12:54.991Z,2.80
2018-03-22T10:15:23.274Z,3.30
2018-03-22T10:17:51.535Z,3.10
2018-03-22T10:20:19.055Z,3.10
2018-03-22T10:22:47.326Z,3.00
2018-03-22T10:25:14.855Z,3.00
2018-03-22T10:27:43.125Z,3.00
2018-03-22T10:30:11.423Z,3.50
2018-03-22T10:32:38.924Z,3.50
2018-03-22T10:35:06.440Z,3.70
2018-03-22T10:37:33.949Z,3.70
2018-03-22T10:40:01.468Z,4.00
2018-03-22T10:42:29.227Z,3.70
2018-03-22T10:44:56.742Z,3.50
2018-03-22T10:47:25.009Z,3.90
2018-03-22T10:49:52.527Z,3.90
2018-03-22T10:52:20.026Z,3.80
2018-03-22T10:54:47.546Z,3.80
2018-03-22T10:57:15.046Z,3.90
2018-03-22T10:59:42.564Z,3.70
2018-03-22T11:02:15.802Z,3.90
2018-03-22T11:04:44.086Z,3.80
2018-03-22T11:07:12.351Z,3.80
2018-03-22T11:09:40.650Z,4.00
2018-03-22T11:12:08.147Z,4.00
2018-03-22T11:14:35.671Z,4.20
2018-03-22T11:17:03.174Z,4.50
2018-03-22T11:19:30.698Z,4.50
2018-03-22T11:21:58.205Z,4.10
2018-03-22T11:24:25.727Z,4.30
2018-03-22T11:26:53.227Z,4.50
2018-03-22T11:29:20.747Z,4.50
2018-03-22T11:31:48.243Z,4.60
2018-03-22T11:34:15.759Z,4.50
2018-03-22T11:36:43.259Z,4.80
2018-03-22T11:39:10.776Z,4.70
2018-03-22T11:41:38.275Z,4.30
2018-03-22T11:44:05.788Z,4.30
2018-03-22T11:46:33.291Z,4.30
2018-03-22T11:49:00.820Z,5.00
2018-03-22T11:51:28.325Z,4.90
2018-03-22T11:53:56.584Z,5.10
2018-03-22T11:56:24.160Z,5.00
2018-03-22T11:58:51.633Z,5.20
2018-03-22T12:01:19.146Z,5.30
2018-03-22T12:03:46.660Z,4.80
2018-03-22T12:06:14.178Z,4.50
2018-03-22T12:08:41.683Z,4.50
2018-03-22T12:11:09.228Z,4.80
2018-03-22T12:13:36.718Z,4.90
2018-03-22T12:16:04.236Z,4.70
2018-03-22T12:18:31.743Z,5.00
2018-03-22T12:20:59.254Z,4.90
2018-03-22T12:23:26.760Z,5.40
2018-03-22T12:25:54.271Z,5.50
2018-03-22T12:28:21.773Z,5.10
2018-03-22T12:30:49.303Z,4.90
2018-03-22T12:33:16.823Z,4.70
2018-03-22T12:35:45.109Z,5.00
2018-03-22T12:38:13.380Z,4.60
2018-03-22T12:40:41.667Z,4.70
2018-03-22T12:43:09.190Z,4.70
2018-03-22T12:45:37.496Z,5.00
2018-03-22T12:48:05.003Z,4.90
2018-03-22T12:50:32.523Z,5.00
2018-03-22T12:53:00.027Z,5.10
2018-03-22T12:55:27.546Z,4.90
2018-03-22T12:57:55.051Z,5.20
2018-03-22T13:00:22.570Z,5.00
2018-03-22T13:02:50.078Z,4.60
2018-03-22T13:05:17.598Z,4.70
2018-03-22T13:07:45.876Z,4.50
2018-03-22T13:10:13.409Z,4.40
2018-03-22T13:12:40.918Z,4.90
2018-03-22T13:15:08.446Z,4.70
2018-03-22T13:17:35.975Z,5.00
2018-03-22T13:20:03.485Z,5.10
2018-03-22T13:22:31.012Z,4.80
2018-03-22T13:24:58.527Z,4.60
2018-03-22T13:27:26.823Z,4.60
2018-03-22T13:29:55.149Z,4.50
2018-03-22T13:32:22.634Z,4.50
2018-03-22T13:34:50.135Z,4.80
2018-03-22T13:37:17.679Z,4.60
2018-03-22T13:39:46.084Z,4.40
2018-03-22T13:42:14.372Z,4.80
2018-03-22T13:44:48.287Z,4.80
2018-03-22T13:47:15.807Z,5.00
2018-03-22T13:49:43.312Z,5.10
2018-03-22T13:52:10.836Z,5.20
2018-03-22T13:54:38.343Z,4.80
2018-03-22T13:57:05.864Z,4.90
2018-03-22T13:59:33.367Z,4.70
2018-03-22T14:02:01.647Z,4.50
2018-03-22T14:04:29.914Z,4.50
2018-03-22T14:06:58.199Z,4.80
2018-03-22T14:09:26.460Z,4.90
2018-03-22T14:11:53.982Z,4.90
2018-03-22T14:14:21.498Z,4.70
2018-03-22T14:16:49.788Z,4.30
2018-03-22T14:19:17.299Z,4.30
2018-03-22T14:21:44.823Z,4.20
2018-03-22T14:24:12.326Z,4.30
2018-03-22T14:26:39.838Z,4.20
2018-03-22T14:29:07.338Z,4.30
2018-03-22T14:31:34.850Z,4.30
2018-03-22T14:34:02.351Z,4.30
2018-03-22T14:36:29.872Z,4.30
2018-03-22T14:38:57.370Z,4.20
2018-03-22T14:41:24.889Z,4.60
2018-03-22T14:43:52.694Z,4.50
2018-03-22T14:46:20.210Z,4.50
2018-03-22T14:48:47.710Z,4.60
2018-03-22T14:51:15.670Z,5.00
2018-03-22T14:53:43.170Z,4.90
2018-03-22T14:56:10.696Z,4.80
2018-03-22T14:58:38.199Z,4.50
2018-03-22T15:01:06.015Z,4.50
2018-03-22T15:03:33.511Z,4.30
2018-03-22T15:06:01.031Z,4.50
2018-03-22T15:08:28.530Z,4.80
2018-03-22T15:10:56.047Z,4.50
2018-03-22T15:13:23.556Z,4.50
2018-03-22T15:15:51.058Z,4.20
2018-03-22T15:18:18.566Z,4.10
2018-03-22T15:20:46.073Z,3.90
2018-03-22T15:23:13.590Z,4.00
2018-03-22T15:25:41.091Z,4.00
2018-03-22T15:28:08.602Z,4.00
2018-03-22T15:30:36.101Z,3.70
2018-03-22T15:33:03.621Z,3.60
2018-03-22T15:35:31.118Z,3.60
2018-03-22T15:37:58.642Z,3.50
2018-03-22T15:40:26.140Z,3.40
2018-03-22T15:42:53.662Z,3.40
2018-03-22T15:45:21.166Z,3.40
2018-03-22T15:47:48.686Z,3.50
2018-03-22T15:50:16.184Z,3.70
2018-03-22T15:52:43.704Z,3.50
2018-03-22T15:55:11.202Z,3.20
2018-03-22T15:57:39.487Z,3.10
2018-03-22T16:00:07.755Z,3.00
2018-03-22T16:02:36.038Z,2.90
2018-03-22T16:05:04.298Z,2.80
2018-03-22T16:07:31.824Z,2.80
2018-03-22T16:09:59.331Z,2.80
2018-03-22T16:12:27.614Z,2.70
2018-03-22T16:14:55.895Z,2.60
2018-03-22T16:17:23.420Z,2.60
2018-03-22T16:19:50.923Z,2.60
2018-03-22T16:22:18.444Z,2.60
2018-03-22T16:24:45.948Z,2.60
2018-03-22T16:27:13.468Z,2.60
2018-03-22T16:29:41.734Z,2.50
2018-03-22T16:32:09.591Z,2.50
2018-03-22T16:34:37.100Z,2.50
2018-03-22T16:37:04.664Z,2.50
2018-03-22T16:39:32.906Z,2.20
2018-03-22T16:42:01.190Z,2.10
2018-03-22T16:44:29.472Z,1.90
2018-03-22T16:46:56.995Z,1.90
2018-03-22T16:49:24.499Z,1.70
2018-03-22T16:51:52.028Z,1.50
2018-03-22T16:54:20.307Z,1.30
2018-03-22T16:56:48.578Z,1.10
2018-03-22T16:59:16.864Z,1.10
2018-03-22T17:01:45.135Z,1.00
2018-03-22T17:04:13.424Z,0.90
2018-03-22T17:06:40.926Z,0.90
2018-03-22T17:09:08.442Z,0.70
2018-03-22T17:11:35.953Z,0.70
2018-03-22T17:14:03.476Z,0.70
2018-03-22T17:16:30.970Z,0.60
2018-03-22T17:18:58.491Z,0.60
2018-03-22T17:21:25.990Z,0.60
2018-03-22T17:23:53.502Z,0.50
2018-03-22T17:26:21.008Z,0.50
2018-03-22T17:28:48.777Z,0.40
2018-03-22T17:31:16.285Z,0.60
2018-03-22T17:33:43.807Z,0.60
2018-03-22T17:36:12.079Z,0.30
2018-03-22T17:38:40.378Z,0.20
2018-03-22T17:41:07.907Z,0.20
2018-03-22T17:43:35.416Z,0.20
2018-03-22T17:46:02.939Z,0.40
2018-03-22T17:48:31.216Z,0.10
2018-03-22T17:50:59.511Z,0.10
2018-03-22T17:53:27.022Z,0.10
2018-03-22T17:55:54.547Z,0.00
2018-03-22T17:58:22.058Z,-0.10
2018-03-22T18:00:50.356Z,-0.20
2018-03-22T18:03:17.863Z,-0.20
2018-03-22T18:05:45.393Z,-0.10
2018-03-22T18:08:12.899Z,0.00
2018-03-22T18:10:40.423Z,-0.10
2018-03-22T18:13:07.926Z,-0.10
2018-03-22T18:15:36.280Z,-0.20
2018-03-22T18:18:04.583Z,-0.20
2018-03-22T18:20:32.875Z,-0.10
2018-03-22T18:23:00.395Z,-0.20
2018-03-22T18:25:27.926Z,-0.20
2018-03-22T18:27:55.448Z,-0.20
2018-03-22T18:30:23.740Z,-0.20
2018-03-22T18:32:51.259Z,-0.20
2018-03-22T18:35:18.819Z,-0.30
2018-03-22T18:37:46.327Z,-0.20
2018-03-22T18:40:13.859Z,-0.30
2018-03-22T18:42:41.380Z,-0.40
2018-03-22T18:45:08.926Z,-0.40
2018-03-22T18:47:36.441Z,-0.40
2018-03-22T18:50:03.974Z,-0.40
2018-03-22T18:52:32.259Z,-0.40
2018-03-22T18:55:00.551Z,-0.40
2018-03-22T18:57:28.080Z,-0.50
2018-03-22T18:59:55.586Z,-0.40
2018-03-22T19:02:23.115Z,-0.30
2018-03-22T19:04:51.387Z,-0.30
2018-03-22T19:07:19.708Z,-0.30
2018-03-22T19:09:47.211Z,-0.30
2018-03-22T19:12:15.503Z,-0.40
2018-03-22T19:14:43.783Z,-0.40
2018-03-22T19:17:11.310Z,-0.40
2018-03-22T19:19:38.833Z,-0.40
2018-03-22T19:22:06.362Z,-0.50
2018-03-22T19:24:33.870Z,-0.50
2018-03-22T19:27:01.399Z,-0.50
2018-03-22T19:29:28.923Z,-0.50
2018-03-22T19:31:57.227Z,-0.50
2018-03-22T19:34:24.738Z,-0.50
2018-03-22T19:36:52.266Z,-0.50
2018-03-22T19:39:20.543Z,-0.50
2018-03-22T19:41:48.067Z,-0.50
2018-03-22T19:44:15.590Z,-0.50
2018-03-22T19:46:43.116Z,-0.40
2018-03-22T19:49:10.627Z,-0.50
2018-03-22T19:51:38.919Z,-0.50
2018-03-22T19:54:06.551Z,-0.50
2018-03-22T19:56:34.852Z,-0.60
2018-03-22T19:59:02.371Z,-0.60
2018-03-22T20:01:29.902Z,-0.60
2018-03-22T20:03:57.423Z,-0.60
2018-03-22T20:06:24.991Z,-0.70
2018-03-22T20:08:52.525Z,-0.60
2018-03-22T20:11:20.996Z,-0.70
2018-03-22T20:13:48.717Z,-0.70
2018-03-22T20:16:16.341Z,-0.70
2018-03-22T20:18:44.665Z,-0.70
2018-03-22T20:21:12.228Z,-0.70
2018-03-22T20:23:39.739Z,-0.80
2018-03-22T20:26:07.270Z,-0.80
2018-03-22T20:28:34.778Z,-0.80
2018-03-22T20:31:02.307Z,-0.80
2018-03-22T20:33:30.595Z,-0.80
2018-03-22T20:35:58.124Z,-0.80
2018-03-22T20:38:25.632Z,-0.90
2018-03-22T20:40:53.162Z,-0.80
2018-03-22T20:43:21.438Z,-0.80
2018-03-22T20:45:49.732Z,-0.80
2018-03-22T20:48:17.243Z,-0.80
2018-03-22T20:50:44.772Z,-0.80
2018-03-22T20:53:12.296Z,-0.80
2018-03-22T20:55:40.860Z,-0.80
2018-03-22T20:58:10.472Z,-0.80
2018-03-22T21:00:39.446Z,-0.70
2018-03-22T21:03:08.709Z,-0.70
2018-03-22T21:05:37.572Z,-0.70
2018-03-22T21:08:05.156Z,-0.70
2018-03-22T21:10:32.667Z,-0.70
2018-03-22T21:13:00.955Z,-0.60
2018-03-22T21:15:29.227Z,-0.70
2018-03-22T21:17:57.519Z,-0.60
2018-03-22T21:20:25.031Z,-0.60
2018-03-22T21:22:52.559Z,-0.60
2018-03-22T21:25:20.075Z,-0.60
2018-03-22T21:27:48.363Z,-0.50
2018-03-22T21:30:15.878Z,-0.50
2018-03-22T21:32:43.411Z,-0.60
2018-03-22T21:35:10.930Z,-0.60
2018-03-22T21:37:38.458Z,-0.60
2018-03-22T21:40:05.962Z,-0.60
2018-03-22T21:42:33.486Z,-0.60
2018-03-22T21:45:00.999Z,-0.60
2018-03-22T21:47:31.308Z,-0.60
2018-03-22T21:49:58.818Z,-0.60
2018-03-22T21:52:38.207Z,-0.50
2018-03-22T21:55:05.718Z,-0.60
2018-03-22T21:57:33.255Z,-0.50
2018-03-22T22:00:00.768Z,-0.50
2018-03-22T22:02:28.299Z,-0.50
2018-03-22T22:04:56.629Z,-0.50
2018-03-22T22:07:24.130Z,-0.50
2018-03-22T22:09:51.639Z,-0.50
2018-03-22T22:12:19.163Z,-0.60
2018-03-22T22:14:47.447Z,-0.60
2018-03-22T22:17:14.986Z,-0.60
2018-03-22T22:19:43.260Z,-0.60
2018-03-22T22:22:11.556Z,-0.70
2018-03-22T22:24:39.121Z,-0.70
2018-03-22T22:27:06.655Z,-0.80
2018-03-22T22:29:34.934Z,-0.90
2018-03-22T22:32:03.227Z,-0.90
2018-03-22T22:34:30.744Z,-0.90
2018-03-22T22:36:58.270Z,-0.90
2018-03-22T22:39:25.783Z,-0.90
2018-03-22T22:41:54.079Z,-0.90
2018-03-22T22:44:21.596Z,-0.90
2018-03-22T22:46:49.120Z,-0.90
2018-03-22T22:49:16.631Z,-0.90
2018-03-22T22:51:44.970Z,-0.90
2018-03-22T22:54:12.495Z,-0.90
2018-03-22T22:56:40.076Z,-0.90
2018-03-22T22:59:07.554Z,-0.90
2018-03-22T23:01:35.089Z,-0.90
2018-03-22T23:04:02.599Z,-0.90
2018-03-22T23:06:30.124Z,-0.80
2018-03-22T23:08:57.639Z,-0.90
2018-03-22T23:11:25.172Z,-0.80
2018-03-22T23:13:53.464Z,-0.80
2018-03-22T23:16:21.746Z,-0.80
2018-03-22T23:18:49.275Z,-0.80
2018-03-22T23:21:16.794Z,-0.80
2018-03-22T23:23:44.319Z,-0.80
2018-03-22T23:26:12.602Z,-0.80
2018-03-22T23:28:40.130Z,-0.80
2018-03-22T23:31:07.643Z,-0.80
2018-03-22T23:33:35.171Z,-0.80
2018-03-22T23:36:02.692Z,-0.80
2018-03-22T23:38:30.218Z,-0.80
2018-03-22T23:40:57.726Z,-0.80
2018-03-22T23:43:25.255Z,-0.80
2018-03-22T23:45:52.769Z,-0.80
2018-03-22T23:48:20.296Z,-0.80
2018-03-22T23:50:47.802Z,-0.80
2018-03-22T23:53:15.335Z,-0.70
2018-03-22T23:55:43.616Z,-0.70
2018-03-22T23:58:11.143Z,-0.70
